createdAt,value
2018-07-30T00:00:45.284Z,74.10
2018-07-30T00:03:20.169Z,74.00
2018-07-30T00:05:48.552Z,73.70
2018-07-30T00:08:16.931Z,73.30
2018-07-30T00:10:45.343Z,72.50
2018-07-30T00:13:17.490Z,73.60
2018-07-30T00:15:45.861Z,74.60
2018-07-30T00:18:14.160Z,74.50
2018-07-30T00:20:42.501Z,74.60
2018-07-30T00:23:10.797Z,73.90
2018-07-30T00:25:39.140Z,72.50
2018-07-30T00:30:35.575Z,73.80
2018-07-30T00:33:03.878Z,74.50
2018-07-30T00:35:32.219Z,72.90
2018-07-30T00:38:00.521Z,72.10
2018-07-30T00:40:28.880Z,72.20
2018-07-30T00:42:57.210Z,72.10
2018-07-30T00:45:25.548Z,72.10
2018-07-30T00:47:53.907Z,72.70
2018-07-30T00:50:22.227Z,72.30
2018-07-30T00:52:50.564Z,72.20
2018-07-30T00:55:18.878Z,72.90
2018-07-30T00:57:47.204Z,72.60
2018-07-30T01:00:15.505Z,71.80
2018-07-30T01:02:43.928Z,72.10
2018-07-30T01:05:12.263Z,71.60
2018-07-30T01:07:40.671Z,71.50
2018-07-30T01:10:08.955Z,71.60
2018-07-30T01:12:37.298Z,71.30
2018-07-30T01:15:05.675Z,72.10
2018-07-30T01:17:34.052Z,72.40
2018-07-30T01:20:02.361Z,71.80
2018-07-30T01:22:30.688Z,71.90
2018-07-30T01:24:58.995Z,74.40
2018-07-30T01:27:27.313Z,73.70
2018-07-30T01:29:55.622Z,71.40
2018-07-30T01:32:23.975Z,71.50
2018-07-30T01:34:52.295Z,72.80
2018-07-30T01:37:20.634Z,74.70
2018-07-30T01:39:49.013Z,75.60
2018-07-30T01:42:17.350Z,75.70
2018-07-30T01:44:45.668Z,75.90
2018-07-30T01:47:14.008Z,75.90
2018-07-30T01:49:42.345Z,75.40
2018-07-30T01:52:10.716Z,75.70
2018-07-30T01:54:39.037Z,75.50
2018-07-30T01:57:07.406Z,75.30
2018-07-30T01:59:35.737Z,75.10
2018-07-30T02:02:04.168Z,74.80
2018-07-30T02:04:32.507Z,74.60
2018-07-30T02:07:00.881Z,74.60
2018-07-30T02:09:29.199Z,76.00
2018-07-30T02:11:57.536Z,75.80
2018-07-30T02:14:25.846Z,74.10
2018-07-30T02:16:54.186Z,73.10
2018-07-30T02:19:22.474Z,73.50
2018-07-30T02:21:50.801Z,73.40
2018-07-30T02:24:19.093Z,74.50
2018-07-30T02:26:47.427Z,74.00
2018-07-30T02:29:15.763Z,73.80
2018-07-30T02:31:44.101Z,73.50
2018-07-30T02:34:12.443Z,74.20
2018-07-30T02:36:40.793Z,73.60
2018-07-30T02:39:11.701Z,73.60
2018-07-30T02:41:40.039Z,73.80
2018-07-30T02:44:08.385Z,73.70
2018-07-30T02:46:36.713Z,73.90
2018-07-30T02:49:05.209Z,75.30
2018-07-30T02:51:33.549Z,75.80
2018-07-30T02:54:01.903Z,74.70
2018-07-30T02:56:30.212Z,74.20
2018-07-30T02:58:58.581Z,74.30
2018-07-30T03:01:26.888Z,74.00
2018-07-30T03:06:23.299Z,73.60
2018-07-30T03:08:51.637Z,73.70
2018-07-30T03:11:19.957Z,73.50
2018-07-30T03:13:48.360Z,72.90
2018-07-30T03:16:16.816Z,73.20
2018-07-30T03:18:45.203Z,73.20
2018-07-30T03:21:13.719Z,73.30
2018-07-30T03:23:42.041Z,72.90
2018-07-30T03:26:10.345Z,73.10
2018-07-30T03:28:38.771Z,73.60
2018-07-30T03:31:07.095Z,73.10
2018-07-30T03:33:35.441Z,73.40
2018-07-30T03:36:03.865Z,72.80
2018-07-30T03:38:32.201Z,72.80
2018-07-30T03:41:00.547Z,72.90
2018-07-30T03:43:28.937Z,72.80
2018-07-30T03:45:57.240Z,72.90
2018-07-30T03:48:25.798Z,73.60
2018-07-30T03:50:54.155Z,74.00
2018-07-30T03:53:22.525Z,73.40
2018-07-30T03:55:50.850Z,73.50
2018-07-30T03:58:19.181Z,74.80
2018-07-30T04:00:47.503Z,74.80
2018-07-30T04:03:15.829Z,74.70
2018-07-30T04:05:44.170Z,75.40
2018-07-30T04:08:12.519Z,75.10
2018-07-30T04:10:40.861Z,75.40
2018-07-30T04:13:09.224Z,75.60
2018-07-30T04:15:37.551Z,75.70
2018-07-30T04:18:05.973Z,75.90
2018-07-30T04:20:34.325Z,75.90
2018-07-30T04:23:02.677Z,75.60
2018-07-30T04:25:30.968Z,75.60
2018-07-30T04:27:59.375Z,75.70
2018-07-30T04:31:30.948Z,74.80
2018-07-30T04:33:59.284Z,74.60
2018-07-30T04:36:27.592Z,75.60
2018-07-30T04:38:55.949Z,75.30
2018-07-30T04:41:24.451Z,75.70
2018-07-30T04:43:52.843Z,76.90
2018-07-30T04:46:21.101Z,77.20
2018-07-30T04:48:49.428Z,77.80
2018-07-30T04:51:17.752Z,77.80
2018-07-30T04:53:46.349Z,77.90
2018-07-30T04:56:14.687Z,77.90
2018-07-30T04:58:42.984Z,78.20
2018-07-30T05:01:11.319Z,78.30
2018-07-30T05:03:39.684Z,78.30
2018-07-30T05:06:07.997Z,78.80
2018-07-30T05:08:36.335Z,78.50
2018-07-30T05:11:04.681Z,78.50
2018-07-30T05:13:33.000Z,78.20
2018-07-30T05:16:01.343Z,78.60
2018-07-30T05:18:29.660Z,78.50
2018-07-30T05:20:58.000Z,77.90
2018-07-30T05:23:26.309Z,78.40
2018-07-30T05:25:54.655Z,78.20
2018-07-30T05:28:22.973Z,78.60
2018-07-30T05:30:51.536Z,78.80
2018-07-30T05:33:19.865Z,77.90
2018-07-30T05:35:48.192Z,77.40
2018-07-30T05:38:16.525Z,75.70
2018-07-30T05:40:44.870Z,75.50
2018-07-30T05:43:13.215Z,76.10
2018-07-30T05:45:41.864Z,76.90
2018-07-30T05:48:10.164Z,78.20
2018-07-30T05:50:38.505Z,79.10
2018-07-30T05:53:06.850Z,78.30
2018-07-30T05:55:35.200Z,76.40
2018-07-30T05:58:03.535Z,76.70
2018-07-30T06:00:31.928Z,73.70
2018-07-30T06:03:00.233Z,73.70
2018-07-30T06:05:28.683Z,74.50
2018-07-30T06:07:57.071Z,70.60
2018-07-30T06:10:25.581Z,70.10
2018-07-30T06:12:53.939Z,69.00
2018-07-30T06:15:22.276Z,68.40
2018-07-30T06:17:50.618Z,66.00
2018-07-30T06:20:18.948Z,64.60
2018-07-30T06:22:47.319Z,64.70
2018-07-30T06:25:15.619Z,64.20
2018-07-30T06:27:43.956Z,64.40
2018-07-30T06:30:12.819Z,64.40
2018-07-30T06:32:41.169Z,64.70
2018-07-30T06:35:09.825Z,64.40
2018-07-30T06:37:38.160Z,64.00
2018-07-30T06:40:06.712Z,63.20
2018-07-30T06:42:35.054Z,63.70
2018-07-30T06:45:03.389Z,62.80
2018-07-30T06:47:31.724Z,61.80
2018-07-30T06:50:00.018Z,62.00
2018-07-30T06:54:56.435Z,60.90
2018-07-30T06:57:24.771Z,60.80
2018-07-30T06:59:53.089Z,61.20
2018-07-30T07:02:21.406Z,60.80
2018-07-30T07:04:49.739Z,60.60
2018-07-30T07:07:18.105Z,60.10
2018-07-30T07:09:46.427Z,60.90
2018-07-30T07:12:14.763Z,60.20
2018-07-30T07:14:43.093Z,60.50
2018-07-30T07:17:11.435Z,60.20
2018-07-30T07:19:39.833Z,60.40
2018-07-30T07:22:08.337Z,59.60
2018-07-30T07:24:36.521Z,60.70
2018-07-30T07:27:04.926Z,61.00
2018-07-30T07:29:33.211Z,60.60
2018-07-30T07:32:01.544Z,60.10
2018-07-30T07:34:29.883Z,60.70
2018-07-30T07:36:58.209Z,61.40
2018-07-30T07:39:26.562Z,62.00
2018-07-30T07:41:54.879Z,61.10
2018-07-30T07:44:23.219Z,60.80
2018-07-30T07:46:51.529Z,61.40
2018-07-30T07:49:19.874Z,61.30
2018-07-30T07:51:48.207Z,60.80
2018-07-30T07:54:17.251Z,61.10
2018-07-30T07:56:45.567Z,59.60
2018-07-30T07:59:13.893Z,59.40
2018-07-30T08:01:42.202Z,58.60
2018-07-30T08:04:10.596Z,57.80
2018-07-30T08:06:38.945Z,59.20
2018-07-30T08:09:09.311Z,59.00
2018-07-30T08:11:38.145Z,57.30
2018-07-30T08:14:06.464Z,55.80
2018-07-30T08:16:34.829Z,56.00
2018-07-30T08:19:03.153Z,57.30
2018-07-30T08:21:31.577Z,56.80
2018-07-30T08:24:00.267Z,57.00
2018-07-30T08:26:28.877Z,57.70
2018-07-30T08:28:57.247Z,56.30
2018-07-30T08:31:25.658Z,56.00
2018-07-30T08:33:53.960Z,56.90
2018-07-30T08:36:22.301Z,56.90
2018-07-30T08:38:50.639Z,56.10
2018-07-30T08:41:18.989Z,57.30
2018-07-30T08:43:47.285Z,56.90
2018-07-30T08:46:15.632Z,57.80
2018-07-30T08:48:43.998Z,56.40
2018-07-30T08:51:12.339Z,56.70
2018-07-30T08:53:40.680Z,56.30
2018-07-30T08:56:09.051Z,55.90
2018-07-30T08:58:37.363Z,56.40
2018-07-30T09:01:05.712Z,57.00
2018-07-30T09:03:34.028Z,56.10
2018-07-30T09:06:02.528Z,56.00
2018-07-30T09:08:30.899Z,56.70
2018-07-30T09:10:59.231Z,56.90
2018-07-30T09:13:27.544Z,56.90
2018-07-30T09:15:58.327Z,57.30
2018-07-30T09:18:26.676Z,57.60
2018-07-30T09:20:55.037Z,56.70
2018-07-30T09:23:23.462Z,56.80
2018-07-30T09:25:51.763Z,55.30
2018-07-30T09:28:20.112Z,56.30
2018-07-30T09:30:48.515Z,56.10
2018-07-30T09:33:16.849Z,56.20
2018-07-30T09:35:45.186Z,56.70
2018-07-30T09:38:13.509Z,56.20
2018-07-30T09:40:41.832Z,55.60
2018-07-30T09:43:10.170Z,55.70
2018-07-30T09:45:38.497Z,56.30
2018-07-30T09:48:06.837Z,55.30
2018-07-30T09:50:35.234Z,55.30
2018-07-30T09:53:03.543Z,56.10
2018-07-30T09:55:31.859Z,55.30
2018-07-30T09:58:00.207Z,55.80
2018-07-30T10:00:33.992Z,55.60
2018-07-30T10:03:02.340Z,55.10
2018-07-30T10:05:30.651Z,55.20
2018-07-30T10:10:27.100Z,54.10
2018-07-30T10:12:55.611Z,54.40
2018-07-30T10:15:23.968Z,54.20
2018-07-30T10:17:52.302Z,54.30
2018-07-30T10:20:20.621Z,53.70
2018-07-30T10:22:48.976Z,52.40
2018-07-30T10:25:17.296Z,52.70
2018-07-30T10:27:45.635Z,52.40
2018-07-30T10:30:14.004Z,52.20
2018-07-30T10:32:42.398Z,53.00
2018-07-30T10:35:10.771Z,52.70
2018-07-30T10:37:39.152Z,52.60
2018-07-30T10:40:07.520Z,52.90
2018-07-30T10:42:35.825Z,52.30
2018-07-30T10:45:04.776Z,51.60
2018-07-30T10:47:33.096Z,52.00
2018-07-30T10:50:01.786Z,51.60
2018-07-30T10:52:30.112Z,51.30
2018-07-30T10:54:58.428Z,52.50
2018-07-30T10:57:26.757Z,52.30
2018-07-30T10:59:55.126Z,52.50
2018-07-30T11:02:23.417Z,52.20
2018-07-30T11:04:51.763Z,51.50
2018-07-30T11:07:20.085Z,52.80
2018-07-30T11:09:48.476Z,52.50
2018-07-30T11:12:16.743Z,52.50
2018-07-30T11:14:45.095Z,52.30
2018-07-30T11:17:13.385Z,52.30
2018-07-30T11:19:41.781Z,52.70
2018-07-30T11:22:10.092Z,52.10
2018-07-30T11:24:38.437Z,52.30
2018-07-30T11:27:06.759Z,52.30
2018-07-30T11:29:35.120Z,52.50
2018-07-30T11:32:03.451Z,52.80
2018-07-30T11:34:31.800Z,53.00
2018-07-30T11:37:00.129Z,53.00
2018-07-30T11:39:28.477Z,53.70
2018-07-30T11:41:56.777Z,53.60
2018-07-30T11:44:25.153Z,53.50
2018-07-30T11:46:53.474Z,53.10
2018-07-30T11:49:21.783Z,53.70
2018-07-30T11:51:50.135Z,52.80
2018-07-30T11:54:18.570Z,53.00
2018-07-30T11:56:46.900Z,52.30
2018-07-30T11:59:15.205Z,51.40
2018-07-30T12:01:43.563Z,52.40
2018-07-30T12:04:11.884Z,51.50
2018-07-30T12:06:40.259Z,51.20
2018-07-30T12:09:08.804Z,51.80
2018-07-30T12:11:38.004Z,51.50
2018-07-30T12:14:06.379Z,51.40
2018-07-30T12:16:34.787Z,51.80
2018-07-30T12:19:03.117Z,51.40
2018-07-30T12:21:31.558Z,51.50
2018-07-30T12:23:59.859Z,50.70
2018-07-30T12:26:28.422Z,51.30
2018-07-30T12:28:56.781Z,50.70
2018-07-30T12:31:25.120Z,52.20
2018-07-30T12:33:53.477Z,50.50
2018-07-30T12:36:21.843Z,50.70
2018-07-30T12:38:50.151Z,49.70
2018-07-30T12:41:18.466Z,49.80
2018-07-30T12:43:46.816Z,49.80
2018-07-30T12:46:15.131Z,50.10
2018-07-30T12:48:43.453Z,50.80
2018-07-30T12:51:11.763Z,51.60
2018-07-30T12:53:40.230Z,51.50
2018-07-30T12:56:08.544Z,52.00
2018-07-30T12:58:36.895Z,50.70
2018-07-30T13:01:05.848Z,51.40
2018-07-30T13:03:34.487Z,50.30
2018-07-30T13:06:02.788Z,49.60
2018-07-30T13:08:31.181Z,49.90
2018-07-30T13:10:59.581Z,50.40
2018-07-30T13:13:27.939Z,50.40
2018-07-30T13:15:56.259Z,49.60
2018-07-30T13:18:24.589Z,50.80
2018-07-30T13:20:52.921Z,50.80
2018-07-30T13:23:21.264Z,51.00
2018-07-30T13:25:49.572Z,51.20
2018-07-30T13:28:17.912Z,51.10
2018-07-30T13:30:46.212Z,50.40
2018-07-30T13:33:14.570Z,50.00
2018-07-30T13:35:42.911Z,49.70
2018-07-30T13:38:11.236Z,49.70
2018-07-30T13:40:39.576Z,50.60
2018-07-30T13:43:07.889Z,50.20
2018-07-30T13:45:36.222Z,49.70
2018-07-30T13:48:04.741Z,49.50
2018-07-30T13:50:33.100Z,50.30
2018-07-30T13:53:01.520Z,50.40
2018-07-30T13:55:29.860Z,49.80
2018-07-30T13:57:58.197Z,50.10
2018-07-30T14:00:26.609Z,49.10
2018-07-30T14:02:54.919Z,50.10
2018-07-30T14:05:23.252Z,49.50
2018-07-30T14:07:51.635Z,50.30
2018-07-30T14:10:19.996Z,49.50
2018-07-30T14:12:48.370Z,49.80
2018-07-30T14:15:16.676Z,50.20
2018-07-30T14:17:45.089Z,50.10
2018-07-30T14:20:13.541Z,49.30
2018-07-30T14:22:42.380Z,50.40
2018-07-30T14:25:10.736Z,50.40
2018-07-30T14:27:39.054Z,49.30
2018-07-30T14:30:08.128Z,49.00
2018-07-30T14:32:36.452Z,49.40
2018-07-30T14:35:04.989Z,49.50
2018-07-30T14:37:33.285Z,50.00
2018-07-30T14:40:06.756Z,50.30
2018-07-30T14:42:35.277Z,50.00
2018-07-30T14:45:04.005Z,49.20
2018-07-30T14:47:32.312Z,49.30
2018-07-30T14:50:00.715Z,49.60
2018-07-30T14:52:29.048Z,48.90
2018-07-30T14:54:57.389Z,48.50
2018-07-30T14:57:25.704Z,48.80
2018-07-30T14:59:54.613Z,49.00
2018-07-30T15:02:22.776Z,47.90
2018-07-30T15:04:51.095Z,48.80
2018-07-30T15:07:19.649Z,48.60
2018-07-30T15:09:47.953Z,48.80
2018-07-30T15:12:16.435Z,48.50
2018-07-30T15:14:44.774Z,48.60
2018-07-30T15:17:13.097Z,49.20
2018-07-30T15:19:41.407Z,49.30
2018-07-30T15:22:09.750Z,48.10
2018-07-30T15:24:38.063Z,47.80
2018-07-30T15:27:06.815Z,48.10
2018-07-30T15:29:35.144Z,47.80
2018-07-30T15:32:03.586Z,48.20
2018-07-30T15:34:31.955Z,48.30
2018-07-30T15:37:00.295Z,48.20
2018-07-30T15:39:28.599Z,48.80
2018-07-30T15:41:56.917Z,49.20
2018-07-30T15:44:25.221Z,49.10
2018-07-30T15:46:53.667Z,49.20
2018-07-30T15:49:21.880Z,49.80
2018-07-30T15:51:50.221Z,50.60
2018-07-30T15:54:18.556Z,49.00
2018-07-30T15:56:46.957Z,49.20
2018-07-30T15:59:15.360Z,49.40
2018-07-30T16:01:43.814Z,48.70
2018-07-30T16:04:12.219Z,48.70
2018-07-30T16:06:40.567Z,48.20
2018-07-30T16:09:09.010Z,48.30
2018-07-30T16:11:37.493Z,48.00
2018-07-30T16:14:05.860Z,48.70
2018-07-30T16:16:34.192Z,48.40
2018-07-30T16:19:02.533Z,48.00
2018-07-30T16:21:30.863Z,47.80
2018-07-30T16:23:59.243Z,48.10
2018-07-30T16:26:27.569Z,48.80
2018-07-30T16:28:55.897Z,48.70
2018-07-30T16:33:52.309Z,48.30
2018-07-30T16:36:20.697Z,48.90
2018-07-30T16:41:17.059Z,48.00
2018-07-30T16:43:45.426Z,47.60
2018-07-30T16:46:13.780Z,47.50
2018-07-30T16:48:42.135Z,47.50
2018-07-30T16:51:10.475Z,46.80
2018-07-30T16:53:38.795Z,46.50
2018-07-30T16:56:07.144Z,46.10
2018-07-30T16:58:35.467Z,45.70
2018-07-30T17:01:03.821Z,45.50
2018-07-30T17:03:32.255Z,45.90
2018-07-30T17:06:00.584Z,46.00
2018-07-30T17:08:28.912Z,45.80
2018-07-30T17:10:57.344Z,46.30
2018-07-30T17:13:25.706Z,46.50
2018-07-30T17:15:54.091Z,47.10
2018-07-30T17:18:22.466Z,46.80
2018-07-30T17:20:50.839Z,47.20
2018-07-30T17:23:19.171Z,46.80
2018-07-30T17:25:47.525Z,47.20
2018-07-30T17:28:15.869Z,47.60
2018-07-30T17:30:44.279Z,47.70
2018-07-30T17:33:12.597Z,47.20
2018-07-30T17:35:40.924Z,46.90
2018-07-30T17:38:09.305Z,47.30
2018-07-30T17:40:37.704Z,46.80
2018-07-30T17:43:06.175Z,46.90
2018-07-30T17:45:34.529Z,47.10
2018-07-30T17:48:02.850Z,47.10
2018-07-30T17:50:31.188Z,47.20
2018-07-30T17:52:59.533Z,47.10
2018-07-30T17:55:27.843Z,47.50
2018-07-30T17:57:56.215Z,47.60
2018-07-30T18:00:24.548Z,47.60
2018-07-30T18:02:52.879Z,47.70
2018-07-30T18:05:21.210Z,47.80
2018-07-30T18:07:50.891Z,48.10
2018-07-30T18:10:19.200Z,48.20
2018-07-30T18:12:47.892Z,48.30
2018-07-30T18:15:16.200Z,48.00
2018-07-30T18:17:44.563Z,48.10
2018-07-30T18:20:12.911Z,48.40
2018-07-30T18:22:41.278Z,48.40
2018-07-30T18:25:09.671Z,48.90
2018-07-30T18:27:38.039Z,48.70
2018-07-30T18:30:07.047Z,48.70
2018-07-30T18:32:35.448Z,48.90
2018-07-30T18:35:03.816Z,49.00
2018-07-30T18:37:32.283Z,49.10
2018-07-30T18:40:00.597Z,49.90
2018-07-30T18:42:29.027Z,50.60
2018-07-30T18:44:57.341Z,50.80
2018-07-30T18:47:25.681Z,50.40
2018-07-30T18:49:54.365Z,51.30
2018-07-30T18:52:22.720Z,53.30
2018-07-30T18:54:51.107Z,54.70
2018-07-30T18:57:19.419Z,55.50
2018-07-30T18:59:47.785Z,56.10
2018-07-30T19:02:16.107Z,56.30
2018-07-30T19:04:44.524Z,56.20
2018-07-30T19:07:12.960Z,55.50
2018-07-30T19:09:41.528Z,57.60
2018-07-30T19:12:09.936Z,58.30
2018-07-30T19:14:38.307Z,58.40
2018-07-30T19:17:06.623Z,59.10
2018-07-30T19:19:35.083Z,59.40
2018-07-30T19:22:03.393Z,59.60
2018-07-30T19:24:31.747Z,59.80
2018-07-30T19:27:00.094Z,60.10
2018-07-30T19:29:28.436Z,60.20
2018-07-30T19:31:56.756Z,60.40
2018-07-30T19:34:25.249Z,60.50
2018-07-30T19:36:53.671Z,60.80
2018-07-30T19:39:22.027Z,61.00
2018-07-30T19:41:50.328Z,61.50
2018-07-30T19:44:18.757Z,61.50
2018-07-30T19:46:46.999Z,61.70
2018-07-30T19:49:15.341Z,61.80
2018-07-30T19:51:44.098Z,62.00
2018-07-30T19:54:12.437Z,62.10
2018-07-30T19:56:40.791Z,62.20
2018-07-30T19:59:09.289Z,62.50
2018-07-30T20:01:37.526Z,62.80
2018-07-30T20:04:05.929Z,63.70
2018-07-30T20:06:34.406Z,64.10
2018-07-30T20:09:03.197Z,64.00
2018-07-30T20:11:31.553Z,63.70
2018-07-30T20:13:59.863Z,63.70
2018-07-30T20:16:28.209Z,63.90
2018-07-30T20:18:56.531Z,64.20
2018-07-30T20:21:24.902Z,64.50
2018-07-30T20:23:53.197Z,64.60
2018-07-30T20:26:21.535Z,64.60
2018-07-30T20:28:49.936Z,65.00
2018-07-30T20:31:24.306Z,65.00
2018-07-30T20:33:53.796Z,65.20
2018-07-30T20:36:22.747Z,65.70
2018-07-30T20:38:51.336Z,66.20
2018-07-30T20:41:19.681Z,66.40
2018-07-30T20:43:48.001Z,66.60
2018-07-30T20:46:16.340Z,66.60
2018-07-30T20:48:44.640Z,66.80
2018-07-30T20:51:13.182Z,67.10
2018-07-30T20:53:41.514Z,67.30
2018-07-30T20:56:09.984Z,67.20
2018-07-30T20:58:38.331Z,66.90
2018-07-30T21:01:06.647Z,66.80
2018-07-30T21:03:34.952Z,67.00
2018-07-30T21:06:03.283Z,67.40
2018-07-30T21:08:31.616Z,67.90
2018-07-30T21:10:59.947Z,67.80
2018-07-30T21:13:28.263Z,67.90
2018-07-30T21:15:56.631Z,68.20
2018-07-30T21:18:24.947Z,68.30
2018-07-30T21:20:53.339Z,68.50
2018-07-30T21:23:21.743Z,68.70
2018-07-30T21:25:50.030Z,68.80
2018-07-30T21:28:18.371Z,68.80
2018-07-30T21:30:46.704Z,68.80
2018-07-30T21:33:15.143Z,69.30
2018-07-30T21:35:43.449Z,69.50
2018-07-30T21:38:11.795Z,69.80
2018-07-30T21:40:40.129Z,69.80
2018-07-30T21:43:08.461Z,69.90
2018-07-30T21:45:36.771Z,69.90
2018-07-30T21:48:05.117Z,70.00
2018-07-30T21:50:33.443Z,69.90
2018-07-30T21:53:01.779Z,70.10
2018-07-30T21:55:30.087Z,70.20
2018-07-30T21:57:58.433Z,70.00
2018-07-30T22:00:27.337Z,70.20
2018-07-30T22:02:56.803Z,70.60
2018-07-30T22:05:25.194Z,70.80
2018-07-30T22:07:53.694Z,70.70
2018-07-30T22:10:23.617Z,70.90
2018-07-30T22:12:53.692Z,70.80
2018-07-30T22:15:22.784Z,70.60
2018-07-30T22:17:51.186Z,70.50
2018-07-30T22:20:19.547Z,70.60
2018-07-30T22:22:47.899Z,70.80
2018-07-30T22:25:16.219Z,71.20
2018-07-30T22:27:44.617Z,71.80
2018-07-30T22:30:12.996Z,71.90
2018-07-30T22:32:41.396Z,72.00
2018-07-30T22:35:10.049Z,71.90
2018-07-30T22:37:38.364Z,71.80
2018-07-30T22:40:07.892Z,71.90
2018-07-30T22:42:36.347Z,72.10
2018-07-30T22:45:04.723Z,71.90
2018-07-30T22:47:33.275Z,72.00
2018-07-30T22:50:01.605Z,72.20
2018-07-30T22:52:29.927Z,72.30
2018-07-30T22:54:58.256Z,72.20
2018-07-30T22:57:26.571Z,72.20
2018-07-30T22:59:54.928Z,72.10
2018-07-30T23:02:23.287Z,72.30
2018-07-30T23:04:51.628Z,72.40
2018-07-30T23:07:19.979Z,72.80
2018-07-30T23:12:16.385Z,73.20
2018-07-30T23:14:44.719Z,73.50
2018-07-30T23:17:13.088Z,73.50
2018-07-30T23:19:41.440Z,73.30
2018-07-30T23:22:09.788Z,73.10
2018-07-30T23:24:38.151Z,73.10
2018-07-30T23:27:06.671Z,73.40
2018-07-30T23:29:34.972Z,73.30
2018-07-30T23:32:03.320Z,73.30
2018-07-30T23:34:31.631Z,73.40
2018-07-30T23:36:59.987Z,72.80
2018-07-30T23:39:28.306Z,72.60
2018-07-30T23:41:56.639Z,72.80
2018-07-30T23:44:24.955Z,73.00
2018-07-30T23:46:53.289Z,72.60
2018-07-30T23:49:21.672Z,72.20
2018-07-30T23:51:50.008Z,72.10
2018-07-30T23:54:18.300Z,71.50
2018-07-30T23:56:46.629Z,71.90
2018-07-30T23:59:14.931Z,72.10
